DLH4WY EDDM-LKPR
Flight info
| Callsign | DLH4WY |
|---|---|
| Flight time | 0h 33m |
| Altitude | 22000 |
| Route | AKINI1Q AKINI Y104 MAMOR L132 AGNAV/N0398F210 DCT LOMKI |
| Aircraft | CRJ9/M-SDFGIRWY/S |
Departure
| Time | 2026-05-06 14:27 |
|---|---|
| Airport | Munich Airport (EDDM) |
Arrival
| Time | 2026-05-06 15:01 |
|---|---|
| Airport | Václav Havel Airport Prague (LKPR) |
| Time | Latitude | Longitude | Altitude | Speed | Heading |
|---|---|---|---|---|---|
| 2026-05-06 13:42 | 48.35693 | 11.79695 | 1483 ft | 0 kts | 83° |
| 2026-05-06 14:14 | 48.35693 | 11.79688 | 1484 ft | 2 kts | 83° |
| 2026-05-06 14:14 | 48.35691 | 11.79659 | 1481 ft | 3 kts | 83° |
| 2026-05-06 14:14 | 48.35688 | 11.79629 | 1474 ft | 3 kts | 83° |
| 2026-05-06 14:15 | 48.35686 | 11.79601 | 1480 ft | 2 kts | 83° |
| 2026-05-06 14:15 | 48.35682 | 11.79578 | 1481 ft | 3 kts | 58° |
| 2026-05-06 14:15 | 48.35669 | 11.79562 | 1476 ft | 3 kts | 20° |
| 2026-05-06 14:15 | 48.35650 | 11.79557 | 1476 ft | 3 kts | 359° |
| 2026-05-06 14:16 | 48.35633 | 11.79559 | 1477 ft | 2 kts | 353° |
| 2026-05-06 14:16 | 48.35632 | 11.79560 | 1476 ft | 0 kts | 353° |
| 2026-05-06 14:20 | 48.35633 | 11.79559 | 1476 ft | 2 kts | 353° |
| 2026-05-06 14:20 | 48.35668 | 11.79549 | 1476 ft | 6 kts | 334° |
| 2026-05-06 14:21 | 48.35714 | 11.79491 | 1471 ft | 13 kts | 317° |
| 2026-05-06 14:21 | 48.35792 | 11.79398 | 1477 ft | 15 kts | 335° |
| 2026-05-06 14:21 | 48.35907 | 11.79352 | 1479 ft | 20 kts | 350° |
| 2026-05-06 14:21 | 48.36031 | 11.79327 | 1473 ft | 4 kts | 354° |
| 2026-05-06 14:22 | 48.36032 | 11.79327 | 1473 ft | 0 kts | 354° |
| 2026-05-06 14:22 | 48.36034 | 11.79327 | 1473 ft | 0 kts | 354° |
| 2026-05-06 14:22 | 48.36056 | 11.79320 | 1483 ft | 6 kts | 340° |
| 2026-05-06 14:23 | 48.36087 | 11.79263 | 1473 ft | 6 kts | 279° |
| 2026-05-06 14:23 | 48.36083 | 11.79183 | 1479 ft | 12 kts | 265° |
| 2026-05-06 14:23 | 48.36073 | 11.79019 | 1480 ft | 20 kts | 263° |
| 2026-05-06 14:23 | 48.36053 | 11.78775 | 1478 ft | 27 kts | 263° |
| 2026-05-06 14:24 | 48.36029 | 11.78474 | 1483 ft | 31 kts | 264° |
| 2026-05-06 14:24 | 48.36002 | 11.78123 | 1475 ft | 36 kts | 263° |
| 2026-05-06 14:24 | 48.35972 | 11.77733 | 1483 ft | 39 kts | 264° |
| 2026-05-06 14:24 | 48.35939 | 11.77315 | 1483 ft | 38 kts | 263° |
| 2026-05-06 14:25 | 48.35937 | 11.77077 | 1473 ft | 12 kts | 295° |
| 2026-05-06 14:25 | 48.35967 | 11.77017 | 1478 ft | 7 kts | 314° |
| 2026-05-06 14:25 | 48.36011 | 11.76980 | 1479 ft | 8 kts | 350° |
| 2026-05-06 14:25 | 48.36084 | 11.76966 | 1481 ft | 13 kts | 352° |
| 2026-05-06 14:26 | 48.36194 | 11.76944 | 1481 ft | 18 kts | 352° |
| 2026-05-06 14:26 | 48.36296 | 11.76977 | 1479 ft | 12 kts | 63° |
| 2026-05-06 14:26 | 48.36301 | 11.77073 | 1483 ft | 10 kts | 83° |
| 2026-05-06 14:26 | 48.36331 | 11.77463 | 1483 ft | 76 kts | 83° |
| 2026-05-06 14:27 | 48.36424 | 11.78631 | 1473 ft | 146 kts | 85° |
| 2026-05-06 14:27 | 48.36566 | 11.80444 | 1573 ft | 194 kts | 82° |
| 2026-05-06 14:27 | 48.36711 | 11.82625 | 2238 ft | 220 kts | 84° |
| 2026-05-06 14:27 | 48.36869 | 11.84790 | 3602 ft | 205 kts | 81° |
| 2026-05-06 14:28 | 48.37257 | 11.86811 | 4845 ft | 198 kts | 62° |
| 2026-05-06 14:28 | 48.38186 | 11.88323 | 5825 ft | 197 kts | 37° |
| 2026-05-06 14:28 | 48.39341 | 11.89509 | 6458 ft | 217 kts | 34° |
| 2026-05-06 14:28 | 48.40776 | 11.90830 | 6639 ft | 253 kts | 30° |
| 2026-05-06 14:29 | 48.42248 | 11.92100 | 7854 ft | 241 kts | 33° |
| 2026-05-06 14:29 | 48.43459 | 11.93972 | 8391 ft | 260 kts | 59° |
| 2026-05-06 14:29 | 48.44405 | 11.96363 | 9005 ft | 275 kts | 62° |
| 2026-05-06 14:29 | 48.45400 | 11.98918 | 9659 ft | 289 kts | 59° |
| 2026-05-06 14:30 | 48.46642 | 12.01316 | 10400 ft | 298 kts | 44° |
| 2026-05-06 14:30 | 48.48364 | 12.03050 | 11222 ft | 303 kts | 24° |
| 2026-05-06 14:30 | 48.50433 | 12.03932 | 11659 ft | 319 kts | 4° |
| 2026-05-06 14:30 | 48.52713 | 12.04120 | 12131 ft | 336 kts | 358° |
| 2026-05-06 14:31 | 48.55098 | 12.04090 | 12665 ft | 350 kts | 355° |
| 2026-05-06 14:31 | 48.57558 | 12.03925 | 13411 ft | 357 kts | 354° |
| 2026-05-06 14:31 | 48.60064 | 12.03769 | 14087 ft | 363 kts | 355° |
| 2026-05-06 14:31 | 48.62597 | 12.03785 | 14672 ft | 371 kts | 4° |
| 2026-05-06 14:32 | 48.65086 | 12.04993 | 15248 ft | 379 kts | 25° |
| 2026-05-06 14:32 | 48.67433 | 12.06843 | 15834 ft | 383 kts | 27° |
| 2026-05-06 14:32 | 48.69787 | 12.08750 | 16407 ft | 388 kts | 27° |
| 2026-05-06 14:32 | 48.72180 | 12.10593 | 16972 ft | 391 kts | 25° |
| 2026-05-06 14:33 | 48.74684 | 12.12364 | 17526 ft | 396 kts | 24° |
| 2026-05-06 14:33 | 48.77171 | 12.14096 | 18031 ft | 399 kts | 24° |
| 2026-05-06 14:33 | 48.79714 | 12.15853 | 18473 ft | 403 kts | 24° |
| 2026-05-06 14:33 | 48.82271 | 12.17637 | 18899 ft | 406 kts | 24° |
| 2026-05-06 14:34 | 48.84846 | 12.19459 | 19332 ft | 410 kts | 25° |
| 2026-05-06 14:34 | 48.87420 | 12.21332 | 19760 ft | 413 kts | 25° |
| 2026-05-06 14:34 | 48.90021 | 12.23252 | 20162 ft | 416 kts | 25° |
| 2026-05-06 14:34 | 48.92656 | 12.25155 | 20567 ft | 419 kts | 24° |
| 2026-05-06 14:35 | 48.95274 | 12.26986 | 20942 ft | 422 kts | 24° |
| 2026-05-06 14:35 | 48.97953 | 12.28876 | 21332 ft | 425 kts | 24° |
| 2026-05-06 14:35 | 49.00626 | 12.30754 | 21572 ft | 432 kts | 24° |
| 2026-05-06 14:35 | 49.03407 | 12.32725 | 21689 ft | 442 kts | 24° |
| 2026-05-06 14:36 | 49.06219 | 12.34713 | 21741 ft | 453 kts | 24° |
| 2026-05-06 14:36 | 49.09138 | 12.36776 | 21758 ft | 463 kts | 24° |
| 2026-05-06 14:36 | 49.12082 | 12.38868 | 21769 ft | 474 kts | 24° |
| 2026-05-06 14:36 | 49.15098 | 12.41007 | 21774 ft | 484 kts | 24° |
| 2026-05-06 14:37 | 49.18153 | 12.43183 | 21766 ft | 493 kts | 24° |
| 2026-05-06 14:37 | 49.21286 | 12.45409 | 21766 ft | 501 kts | 24° |
| 2026-05-06 14:37 | 49.24462 | 12.47679 | 21765 ft | 508 kts | 24° |
| 2026-05-06 14:37 | 49.27641 | 12.49940 | 21757 ft | 498 kts | 24° |
| 2026-05-06 14:38 | 49.30742 | 12.52165 | 21756 ft | 487 kts | 24° |
| 2026-05-06 14:38 | 49.33786 | 12.54300 | 21746 ft | 477 kts | 21° |
| 2026-05-06 14:38 | 49.36946 | 12.55664 | 21740 ft | 466 kts | 8° |
| 2026-05-06 14:38 | 49.40128 | 12.56400 | 21732 ft | 458 kts | 5° |
| 2026-05-06 14:39 | 49.43254 | 12.57100 | 21737 ft | 453 kts | 7° |
| 2026-05-06 14:39 | 49.46331 | 12.57981 | 21732 ft | 448 kts | 9° |
| 2026-05-06 14:39 | 49.49370 | 12.58996 | 21736 ft | 443 kts | 10° |
| 2026-05-06 14:39 | 49.52292 | 12.59993 | 21742 ft | 439 kts | 10° |
| 2026-05-06 14:40 | 49.55282 | 12.61042 | 21733 ft | 435 kts | 13° |
| 2026-05-06 14:40 | 49.57999 | 12.63004 | 21713 ft | 433 kts | 36° |
| 2026-05-06 14:40 | 49.60105 | 12.66286 | 21745 ft | 427 kts | 55° |
| 2026-05-06 14:40 | 49.61806 | 12.69995 | 21762 ft | 423 kts | 57° |
| 2026-05-06 14:41 | 49.63499 | 12.73693 | 21757 ft | 422 kts | 56° |
| 2026-05-06 14:41 | 49.65284 | 12.77210 | 21760 ft | 424 kts | 52° |
| 2026-05-06 14:41 | 49.67241 | 12.80710 | 21762 ft | 426 kts | 50° |
| 2026-05-06 14:41 | 49.69212 | 12.84147 | 21766 ft | 426 kts | 50° |
| 2026-05-06 14:42 | 49.71138 | 12.87547 | 21768 ft | 427 kts | 51° |
| 2026-05-06 14:42 | 49.73053 | 12.91037 | 21766 ft | 428 kts | 51° |
| 2026-05-06 14:42 | 49.74979 | 12.94575 | 21765 ft | 429 kts | 51° |
| 2026-05-06 14:42 | 49.76903 | 12.98108 | 21771 ft | 429 kts | 51° |
| 2026-05-06 14:43 | 49.78816 | 13.01633 | 21773 ft | 430 kts | 51° |
| 2026-05-06 14:43 | 49.80744 | 13.05187 | 21774 ft | 431 kts | 51° |
| 2026-05-06 14:43 | 49.82668 | 13.08740 | 21774 ft | 431 kts | 52° |
| 2026-05-06 14:43 | 49.84607 | 13.12322 | 21772 ft | 432 kts | 52° |
| 2026-05-06 14:44 | 49.86508 | 13.15838 | 21775 ft | 433 kts | 52° |
| 2026-05-06 14:44 | 49.88441 | 13.19413 | 21774 ft | 433 kts | 52° |
| 2026-05-06 14:44 | 49.90295 | 13.23087 | 21762 ft | 432 kts | 62° |
| 2026-05-06 14:45 | 49.91359 | 13.31833 | 21775 ft | 410 kts | 104° |
| 2026-05-06 14:45 | 49.90833 | 13.36164 | 21750 ft | 409 kts | 107° |
| 2026-05-06 14:45 | 49.90337 | 13.40497 | 21641 ft | 406 kts | 104° |
| 2026-05-06 14:45 | 49.90015 | 13.44910 | 20238 ft | 421 kts | 97° |
| 2026-05-06 14:46 | 49.90396 | 13.49457 | 19374 ft | 431 kts | 75° |
| 2026-05-06 14:46 | 49.91805 | 13.53572 | 18631 ft | 432 kts | 52° |
| 2026-05-06 14:46 | 49.93836 | 13.56949 | 18004 ft | 427 kts | 45° |
| 2026-05-06 14:46 | 49.95880 | 13.60160 | 17267 ft | 422 kts | 47° |
| 2026-05-06 14:47 | 49.97814 | 13.63559 | 16555 ft | 416 kts | 52° |
| 2026-05-06 14:47 | 49.99557 | 13.67092 | 15883 ft | 410 kts | 54° |
| 2026-05-06 14:47 | 50.01204 | 13.70617 | 15204 ft | 405 kts | 55° |
| 2026-05-06 14:47 | 50.02864 | 13.74167 | 14540 ft | 400 kts | 54° |
| 2026-05-06 14:48 | 50.04520 | 13.77614 | 13902 ft | 395 kts | 53° |
| 2026-05-06 14:48 | 50.06173 | 13.80963 | 13284 ft | 390 kts | 53° |
| 2026-05-06 14:48 | 50.07798 | 13.84306 | 12600 ft | 384 kts | 55° |
| 2026-05-06 14:48 | 50.09115 | 13.87819 | 11968 ft | 377 kts | 66° |
| 2026-05-06 14:49 | 50.10149 | 13.91476 | 11717 ft | 360 kts | 69° |
| 2026-05-06 14:49 | 50.11101 | 13.94977 | 11608 ft | 343 kts | 69° |
| 2026-05-06 14:49 | 50.12031 | 13.98320 | 11477 ft | 329 kts | 68° |
| 2026-05-06 14:49 | 50.12971 | 14.01510 | 11342 ft | 318 kts | 67° |
| 2026-05-06 14:50 | 50.13895 | 14.04561 | 11070 ft | 313 kts | 67° |
| 2026-05-06 14:50 | 50.14816 | 14.07610 | 10738 ft | 311 kts | 67° |
| 2026-05-06 14:50 | 50.15732 | 14.10653 | 10402 ft | 308 kts | 66° |
| 2026-05-06 14:50 | 50.16639 | 14.13670 | 10078 ft | 306 kts | 67° |
| 2026-05-06 14:51 | 50.17540 | 14.16673 | 9733 ft | 304 kts | 67° |
| 2026-05-06 14:51 | 50.18419 | 14.19643 | 9373 ft | 301 kts | 67° |
| 2026-05-06 14:51 | 50.19310 | 14.22592 | 9028 ft | 299 kts | 67° |
| 2026-05-06 14:51 | 50.20194 | 14.25520 | 8637 ft | 298 kts | 67° |
| 2026-05-06 14:52 | 50.21066 | 14.28438 | 8243 ft | 295 kts | 66° |
| 2026-05-06 14:52 | 50.21923 | 14.31299 | 7854 ft | 293 kts | 67° |
| 2026-05-06 14:52 | 50.22793 | 14.34194 | 7466 ft | 291 kts | 66° |
| 2026-05-06 14:52 | 50.23642 | 14.37057 | 7098 ft | 288 kts | 67° |
| 2026-05-06 14:53 | 50.24464 | 14.39843 | 6719 ft | 286 kts | 67° |
| 2026-05-06 14:53 | 50.25302 | 14.42661 | 6320 ft | 284 kts | 67° |
| 2026-05-06 14:53 | 50.26126 | 14.45449 | 5879 ft | 283 kts | 67° |
| 2026-05-06 14:53 | 50.26942 | 14.48230 | 5425 ft | 281 kts | 67° |
| 2026-05-06 14:54 | 50.27645 | 14.51044 | 5028 ft | 276 kts | 82° |
| 2026-05-06 14:54 | 50.27425 | 14.53916 | 4808 ft | 261 kts | 118° |
| 2026-05-06 14:54 | 50.26283 | 14.55909 | 4828 ft | 237 kts | 148° |
| 2026-05-06 14:54 | 50.24919 | 14.57195 | 4848 ft | 222 kts | 155° |
| 2026-05-06 14:55 | 50.23576 | 14.58166 | 4844 ft | 209 kts | 161° |
| 2026-05-06 14:55 | 50.22201 | 14.58239 | 4752 ft | 197 kts | 204° |
| 2026-05-06 14:55 | 50.21127 | 14.57021 | 4645 ft | 188 kts | 221° |
| 2026-05-06 14:55 | 50.20196 | 14.55604 | 4425 ft | 184 kts | 226° |
| 2026-05-06 14:56 | 50.19429 | 14.54046 | 4206 ft | 177 kts | 240° |
| 2026-05-06 14:56 | 50.18911 | 14.52381 | 4116 ft | 167 kts | 244° |
| 2026-05-06 14:56 | 50.18463 | 14.50737 | 4032 ft | 161 kts | 245° |
| 2026-05-06 14:56 | 50.18062 | 14.49207 | 4012 ft | 147 kts | 246° |
| 2026-05-06 14:57 | 50.17730 | 14.47764 | 4008 ft | 135 kts | 245° |
| 2026-05-06 14:57 | 50.17367 | 14.46466 | 3963 ft | 131 kts | 242° |
| 2026-05-06 14:57 | 50.16972 | 14.45189 | 3995 ft | 129 kts | 241° |
| 2026-05-06 14:57 | 50.16578 | 14.43929 | 3999 ft | 129 kts | 240° |
| 2026-05-06 14:58 | 50.16139 | 14.42569 | 3699 ft | 151 kts | 240° |
| 2026-05-06 14:58 | 50.15675 | 14.41098 | 3434 ft | 155 kts | 240° |
| 2026-05-06 14:58 | 50.15179 | 14.39597 | 3133 ft | 152 kts | 239° |
| 2026-05-06 14:58 | 50.14747 | 14.38203 | 3008 ft | 137 kts | 244° |
| 2026-05-06 14:59 | 50.14395 | 14.36858 | 2795 ft | 136 kts | 246° |
| 2026-05-06 14:59 | 50.14025 | 14.35452 | 2460 ft | 144 kts | 245° |
| 2026-05-06 14:59 | 50.13602 | 14.34024 | 2171 ft | 148 kts | 242° |
| 2026-05-06 14:59 | 50.13152 | 14.32582 | 1944 ft | 149 kts | 242° |
| 2026-05-06 15:00 | 50.12716 | 14.31153 | 1798 ft | 142 kts | 244° |
| 2026-05-06 15:00 | 50.12317 | 14.29741 | 1545 ft | 140 kts | 243° |
| 2026-05-06 15:00 | 50.11919 | 14.28383 | 1356 ft | 133 kts | 242° |
| 2026-05-06 15:00 | 50.11539 | 14.27121 | 1222 ft | 124 kts | 241° |
| 2026-05-06 15:01 | 50.11199 | 14.26010 | 1164 ft | 96 kts | 243° |
| 2026-05-06 15:01 | 50.10984 | 14.25326 | 1171 ft | 48 kts | 244° |
| 2026-05-06 15:01 | 50.10855 | 14.24866 | 1167 ft | 41 kts | 244° |
| 2026-05-06 15:01 | 50.10719 | 14.24504 | 1169 ft | 38 kts | 230° |
| 2026-05-06 15:02 | 50.10555 | 14.24309 | 1178 ft | 22 kts | 214° |
| 2026-05-06 15:02 | 50.10442 | 14.24241 | 1180 ft | 14 kts | 167° |
| 2026-05-06 15:02 | 50.10357 | 14.24334 | 1176 ft | 17 kts | 120° |
| 2026-05-06 15:02 | 50.10343 | 14.24532 | 1172 ft | 21 kts | 80° |
| 2026-05-06 15:03 | 50.10370 | 14.24776 | 1171 ft | 25 kts | 82° |
| 2026-05-06 15:03 | 50.10399 | 14.25043 | 1172 ft | 8 kts | 78° |
| 2026-05-06 15:03 | 50.10402 | 14.25070 | 1172 ft | 5 kts | 78° |
| 2026-05-06 15:03 | 50.10414 | 14.25154 | 1170 ft | 11 kts | 77° |
| 2026-05-06 15:04 | 50.10435 | 14.25293 | 1170 ft | 16 kts | 77° |
| 2026-05-06 15:04 | 50.10458 | 14.25478 | 1175 ft | 18 kts | 80° |
| 2026-05-06 15:04 | 50.10481 | 14.25682 | 1181 ft | 21 kts | 80° |
| 2026-05-06 15:04 | 50.10509 | 14.25923 | 1184 ft | 24 kts | 78° |
| 2026-05-06 15:05 | 50.10561 | 14.26129 | 1185 ft | 16 kts | 56° |
| 2026-05-06 15:05 | 50.10614 | 14.26213 | 1182 ft | 0 kts | 29° |
| 2026-05-06 15:05 | 50.10619 | 14.26218 | 1182 ft | 4 kts | 30° |
| 2026-05-06 15:05 | 50.10622 | 14.26220 | 1181 ft | 0 kts | 30° |